Shippingport, Pennsylvania
Current Conditions -  °F | °C
As of 4:47 PM on Thursday 23 Oct 2014 (Local Time) from KBVI Reporting Station
Clear Clear  
Wind Chill: 59°   Ceiling: Unl
Heat Index: 59°   Visibility: 10mi
Dew Point: 43°   Wind: 13mph
Humidity: 55%   Direction: 340°NNW
Pressure: 30.07"   Gusts: 17mph
Location:  40.63°N, 80.41°W
Report Text: KBVI 232047Z 34011G15KT 10SM CLR 15/06 A3007
Loading
Personal Weather Stations






























Interactive Weather Map
Tropical Storm Tracking
New forecast layout! Learn more

10-Day Weather Forecast

Advertisements
Track Severe Weather on mobile